createdAt,value
2022-12-25T00:01:24.306Z,76.40
2022-12-25T00:03:52.877Z,76.40
2022-12-25T00:06:20.404Z,76.40
2022-12-25T00:08:47.545Z,76.50
2022-12-25T00:11:18.368Z,76.50
2022-12-25T00:13:47.307Z,76.60
2022-12-25T00:16:32.469Z,76.50
2022-12-25T00:19:00.929Z,76.60
2022-12-25T00:21:28.730Z,76.40
2022-12-25T00:23:58.235Z,76.40
2022-12-25T00:26:27.726Z,76.40
2022-12-25T00:28:56.834Z,76.30
2022-12-25T00:31:25.734Z,76.30
2022-12-25T00:33:53.198Z,76.30
2022-12-25T00:36:23.132Z,76.20
2022-12-25T00:38:50.218Z,76.20
2022-12-25T00:41:40.693Z,76.20
2022-12-25T00:44:10.567Z,76.20
2022-12-25T00:46:37.682Z,76.20
2022-12-25T00:49:05.020Z,76.20
2022-12-25T00:51:33.046Z,76.20
2022-12-25T00:54:00.219Z,76.20
2022-12-25T00:56:27.497Z,76.20
2022-12-25T00:58:55.017Z,76.20
2022-12-25T01:01:22.299Z,76.20
2022-12-25T01:03:49.511Z,76.30
2022-12-25T01:06:16.672Z,76.30
2022-12-25T01:09:02.544Z,76.30
2022-12-25T01:11:29.982Z,76.30
2022-12-25T01:13:57.487Z,76.30
2022-12-25T01:16:24.854Z,76.30
2022-12-25T01:18:52.316Z,76.40
2022-12-25T01:21:21.369Z,76.40
2022-12-25T01:23:50.992Z,76.40
2022-12-25T01:26:20.838Z,76.40
2022-12-25T01:28:49.393Z,76.50
2022-12-25T01:31:20.277Z,76.50
2022-12-25T01:33:48.097Z,76.50
2022-12-25T01:36:22.590Z,76.60
2022-12-25T01:38:51.192Z,76.60
2022-12-25T01:41:21.960Z,76.60
2022-12-25T01:46:24.646Z,76.70
2022-12-25T01:48:53.315Z,76.70
2022-12-25T01:51:42.660Z,76.80
2022-12-25T01:54:20.838Z,76.80
2022-12-25T01:56:50.038Z,76.70
2022-12-25T01:59:20.181Z,76.70
2022-12-25T02:01:47.672Z,76.70
2022-12-25T02:04:40.291Z,76.80
2022-12-25T02:07:22.785Z,76.80
2022-12-25T02:09:51.693Z,76.60
2022-12-25T02:12:31.633Z,76.50
2022-12-25T02:15:16.108Z,76.40
2022-12-25T02:18:01.438Z,76.40
2022-12-25T02:20:45.061Z,76.40
2022-12-25T02:23:53.111Z,76.30
2022-12-25T02:27:10.993Z,76.30
2022-12-25T02:29:59.937Z,76.20
2022-12-25T02:32:39.762Z,76.10
2022-12-25T02:35:25.437Z,76.20
2022-12-25T02:38:07.426Z,76.30
2022-12-25T02:40:42.935Z,76.30
2022-12-25T02:43:43.924Z,76.30
2022-12-25T02:46:34.434Z,76.40
2022-12-25T02:49:32.415Z,76.40
2022-12-25T02:52:40.911Z,76.60
2022-12-25T02:55:37.906Z,76.70
2022-12-25T02:58:31.224Z,76.70
2022-12-25T03:01:25.123Z,76.70
2022-12-25T03:04:15.296Z,76.80
2022-12-25T03:07:02.974Z,76.90
2022-12-25T03:10:06.619Z,76.90
2022-12-25T03:13:14.891Z,77.00
2022-12-25T03:16:00.991Z,77.30
2022-12-25T03:18:31.650Z,77.00
2022-12-25T03:21:18.497Z,77.10
2022-12-25T03:24:23.588Z,77.10
2022-12-25T03:26:57.012Z,77.10
2022-12-25T03:29:49.657Z,77.10
2022-12-25T03:32:38.303Z,77.00
2022-12-25T03:35:22.920Z,77.00
2022-12-25T03:38:42.506Z,77.00
2022-12-25T03:41:40.227Z,76.90
2022-12-25T03:44:35.597Z,76.90
2022-12-25T03:47:31.775Z,76.80
2022-12-25T03:50:39.043Z,76.80
2022-12-25T03:53:32.646Z,76.80
2022-12-25T03:56:18.625Z,76.70
2022-12-25T03:59:19.324Z,76.70
2022-12-25T04:02:09.800Z,76.70
2022-12-25T04:04:56.316Z,76.50
2022-12-25T04:07:42.208Z,76.50
2022-12-25T04:10:28.688Z,76.60
2022-12-25T04:13:14.542Z,76.60
2022-12-25T04:16:00.648Z,76.70
2022-12-25T04:18:46.358Z,76.80
2022-12-25T04:21:32.323Z,76.80
2022-12-25T04:24:18.292Z,76.90
2022-12-25T04:27:03.977Z,77.00
2022-12-25T04:29:49.318Z,77.10
2022-12-25T04:32:35.153Z,77.10
2022-12-25T04:35:21.038Z,77.20
2022-12-25T04:37:48.110Z,77.20
2022-12-25T04:40:15.375Z,77.20
2022-12-25T04:42:42.423Z,77.20
2022-12-25T04:45:10.588Z,77.10
2022-12-25T04:47:37.699Z,77.10
2022-12-25T04:50:05.489Z,77.10
2022-12-25T04:52:40.308Z,77.10
2022-12-25T04:55:09.821Z,77.20
2022-12-25T04:57:37.555Z,77.20
2022-12-25T05:00:06.958Z,77.10
2022-12-25T05:02:34.280Z,77.10
2022-12-25T05:05:01.597Z,77.10
2022-12-25T05:07:28.851Z,77.10
2022-12-25T05:09:55.950Z,77.10
2022-12-25T05:12:23.021Z,77.10
2022-12-25T05:14:50.450Z,77.10
2022-12-25T05:17:17.512Z,77.20
2022-12-25T05:19:44.514Z,77.20
2022-12-25T05:22:11.629Z,77.20
2022-12-25T05:24:38.760Z,77.20
2022-12-25T05:27:05.811Z,77.10
2022-12-25T05:29:32.980Z,77.10
2022-12-25T05:32:00.008Z,77.10
2022-12-25T05:34:27.021Z,77.00
2022-12-25T05:36:54.035Z,76.90
2022-12-25T05:39:21.121Z,76.80
2022-12-25T05:41:48.265Z,76.80
2022-12-25T05:44:15.641Z,76.80
2022-12-25T05:46:42.749Z,76.90
2022-12-25T05:49:09.827Z,76.90
2022-12-25T05:51:36.961Z,76.90
2022-12-25T05:54:04.102Z,76.90
2022-12-25T05:56:31.206Z,76.90
2022-12-25T05:58:58.307Z,76.90
2022-12-25T06:01:28.417Z,76.80
2022-12-25T06:03:56.937Z,76.80
2022-12-25T06:06:24.205Z,76.80
2022-12-25T06:08:55.144Z,76.90
2022-12-25T06:11:22.930Z,76.90
2022-12-25T06:13:51.940Z,76.80
2022-12-25T06:16:20.103Z,76.70
2022-12-25T06:18:50.359Z,76.70
2022-12-25T06:21:17.469Z,76.80
2022-12-25T06:23:45.320Z,76.90
2022-12-25T06:26:17.002Z,76.90
2022-12-25T06:28:44.998Z,77.10
2022-12-25T06:31:16.399Z,77.10
2022-12-25T06:33:44.066Z,77.10
2022-12-25T06:36:24.843Z,77.10
2022-12-25T06:38:52.895Z,77.20
2022-12-25T06:41:25.276Z,77.10
2022-12-25T06:43:55.624Z,77.20
2022-12-25T06:46:25.493Z,77.20
2022-12-25T06:48:53.025Z,77.20
2022-12-25T06:51:29.716Z,77.20
2022-12-25T06:53:57.806Z,77.20
2022-12-25T06:56:28.478Z,77.20
2022-12-25T06:59:02.019Z,77.20
2022-12-25T07:01:35.022Z,77.30
2022-12-25T07:04:06.836Z,77.30
2022-12-25T07:06:34.337Z,77.30
2022-12-25T07:09:01.404Z,77.70
2022-12-25T07:11:28.612Z,77.20
2022-12-25T07:13:55.703Z,77.30
2022-12-25T07:16:23.102Z,77.40
2022-12-25T07:18:50.265Z,77.40
2022-12-25T07:21:20.453Z,77.50
2022-12-25T07:23:49.890Z,77.50
2022-12-25T07:26:20.090Z,77.60
2022-12-25T07:28:47.171Z,77.60
2022-12-25T07:31:16.666Z,77.60
2022-12-25T07:33:45.032Z,77.70
2022-12-25T07:36:13.572Z,77.70
2022-12-25T07:38:42.504Z,77.70
2022-12-25T07:41:13.442Z,77.70
2022-12-25T07:43:41.386Z,77.70
2022-12-25T07:46:09.414Z,77.80
2022-12-25T07:48:37.197Z,77.80
2022-12-25T07:51:11.583Z,77.80
2022-12-25T07:53:39.573Z,77.80
2022-12-25T07:56:14.846Z,77.90
2022-12-25T07:58:44.236Z,78.10
2022-12-25T08:01:26.744Z,78.20
2022-12-25T08:04:00.377Z,78.30
2022-12-25T08:06:32.827Z,78.30
2022-12-25T08:09:12.856Z,78.40
2022-12-25T08:11:45.433Z,78.60
2022-12-25T08:14:12.733Z,78.60
2022-12-25T08:16:41.583Z,78.70
2022-12-25T08:19:09.308Z,78.70
2022-12-25T08:21:36.760Z,78.70
2022-12-25T08:24:04.135Z,78.70
2022-12-25T08:26:31.171Z,78.70
2022-12-25T08:28:58.230Z,78.70
2022-12-25T08:31:28.711Z,78.70
2022-12-25T08:33:58.040Z,78.70
2022-12-25T08:36:25.522Z,78.60
2022-12-25T08:38:57.004Z,78.60
2022-12-25T08:41:27.971Z,78.60
2022-12-25T08:43:55.226Z,78.40
2022-12-25T08:46:22.342Z,78.30
2022-12-25T08:48:50.629Z,78.30
2022-12-25T08:51:20.862Z,78.30
2022-12-25T08:53:49.772Z,78.30
2022-12-25T08:56:18.300Z,78.30
2022-12-25T08:58:45.607Z,78.20
2022-12-25T09:01:13.832Z,78.10
2022-12-25T09:03:41.566Z,78.10
2022-12-25T09:06:17.795Z,77.90
2022-12-25T09:08:48.991Z,77.60
2022-12-25T09:11:19.103Z,77.50
2022-12-25T09:13:46.707Z,77.30
2022-12-25T09:16:19.069Z,77.20
2022-12-25T09:18:46.380Z,77.20
2022-12-25T09:21:15.874Z,77.20
2022-12-25T09:23:43.219Z,77.30
2022-12-25T09:26:14.042Z,77.40
2022-12-25T09:28:48.424Z,77.50
2022-12-25T09:31:18.514Z,77.60
2022-12-25T09:33:45.623Z,77.70
2022-12-25T09:36:12.758Z,77.70
2022-12-25T09:38:39.942Z,77.80
2022-12-25T09:41:30.797Z,77.80
2022-12-25T09:44:19.854Z,77.50
2022-12-25T09:47:12.252Z,77.40
2022-12-25T09:49:44.934Z,77.10
2022-12-25T09:52:22.377Z,77.20
2022-12-25T09:55:20.542Z,77.10
2022-12-25T09:57:55.998Z,77.20
2022-12-25T10:00:26.137Z,77.10
2022-12-25T10:03:23.389Z,77.30
2022-12-25T10:06:37.353Z,77.00
2022-12-25T10:09:20.567Z,77.00
2022-12-25T10:12:15.280Z,77.30
2022-12-25T10:15:21.266Z,77.30
2022-12-25T10:18:37.760Z,76.90
2022-12-25T10:21:13.270Z,76.80
2022-12-25T10:24:07.791Z,76.70
2022-12-25T10:26:35.622Z,76.40
2022-12-25T10:29:16.952Z,76.70
2022-12-25T10:31:47.442Z,76.60
2022-12-25T10:34:15.355Z,76.60
2022-12-25T10:36:45.306Z,76.50
2022-12-25T10:39:21.292Z,76.40
2022-12-25T10:42:17.121Z,76.00
2022-12-25T10:44:57.741Z,76.10
2022-12-25T10:47:29.272Z,75.90
2022-12-25T10:49:57.970Z,76.10
2022-12-25T10:52:28.810Z,76.20
2022-12-25T10:54:56.744Z,76.20
2022-12-25T10:57:26.161Z,76.20
2022-12-25T10:59:56.593Z,76.10
2022-12-25T11:02:42.066Z,75.90
2022-12-25T11:05:15.491Z,75.20
2022-12-25T11:07:51.317Z,75.80
2022-12-25T11:10:37.767Z,75.70
2022-12-25T11:13:18.583Z,75.60
2022-12-25T11:15:49.503Z,75.60
2022-12-25T11:18:29.174Z,75.60
2022-12-25T11:21:02.911Z,75.60
2022-12-25T11:23:32.873Z,75.70
2022-12-25T11:26:07.988Z,75.70
2022-12-25T11:28:38.320Z,75.60
2022-12-25T11:31:19.839Z,75.30
2022-12-25T11:33:59.830Z,75.10
2022-12-25T11:36:46.208Z,75.10
2022-12-25T11:39:32.084Z,75.00
2022-12-25T11:42:08.370Z,74.70
2022-12-25T11:45:09.308Z,74.70
2022-12-25T11:47:57.575Z,74.20
2022-12-25T11:50:43.012Z,74.20
2022-12-25T11:53:47.425Z,73.80
2022-12-25T11:56:26.733Z,73.60
2022-12-25T11:59:30.602Z,74.30
2022-12-25T12:02:33.060Z,74.30
2022-12-25T12:05:15.970Z,74.00
2022-12-25T12:08:06.675Z,74.40
2022-12-25T12:11:16.410Z,74.10
2022-12-25T12:14:21.414Z,74.60
2022-12-25T12:16:50.831Z,73.60
2022-12-25T12:19:34.822Z,74.20
2022-12-25T12:22:05.440Z,73.40
2022-12-25T12:24:44.041Z,74.00
2022-12-25T12:27:34.621Z,73.60
2022-12-25T12:30:23.343Z,73.80
2022-12-25T12:32:55.529Z,73.60
2022-12-25T12:35:42.827Z,73.50
2022-12-25T12:38:18.484Z,72.30
2022-12-25T12:41:03.215Z,73.20
2022-12-25T12:43:41.810Z,72.90
2022-12-25T12:46:27.938Z,72.60
2022-12-25T12:49:27.026Z,73.00
2022-12-25T12:52:10.513Z,72.90
2022-12-25T12:55:01.619Z,72.80
2022-12-25T12:57:34.505Z,72.70
2022-12-25T13:00:08.409Z,73.30
2022-12-25T13:03:16.745Z,73.40
2022-12-25T13:05:55.833Z,73.50
2022-12-25T13:08:49.919Z,73.40
2022-12-25T13:11:33.929Z,73.50
2022-12-25T13:14:03.403Z,72.50
2022-12-25T13:16:35.013Z,72.80
2022-12-25T13:19:22.376Z,72.50
2022-12-25T13:22:06.260Z,72.30
2022-12-25T13:24:36.870Z,71.70
2022-12-25T13:27:24.649Z,72.20
2022-12-25T13:29:51.811Z,71.10
2022-12-25T13:32:33.697Z,71.90
2022-12-25T13:35:01.333Z,71.00
2022-12-25T13:37:31.510Z,71.60
2022-12-25T13:40:02.179Z,71.50
2022-12-25T13:42:36.469Z,71.50
2022-12-25T13:45:28.431Z,71.50
2022-12-25T13:47:56.213Z,71.50
2022-12-25T13:50:33.597Z,71.40
2022-12-25T13:53:18.190Z,71.30
2022-12-25T13:55:52.634Z,71.40
2022-12-25T13:58:27.673Z,72.30
2022-12-25T14:00:58.368Z,72.40
2022-12-25T14:03:47.291Z,72.80
2022-12-25T14:06:20.966Z,72.20
2022-12-25T14:08:48.979Z,72.60
2022-12-25T14:11:20.796Z,72.70
2022-12-25T14:13:51.973Z,72.70
2022-12-25T14:16:21.110Z,72.60
2022-12-25T14:19:00.287Z,72.60
2022-12-25T14:21:41.956Z,71.90
2022-12-25T14:24:15.429Z,71.60
2022-12-25T14:26:43.228Z,72.10
2022-12-25T14:29:17.621Z,72.10
2022-12-25T14:31:47.516Z,71.70
2022-12-25T14:34:22.538Z,71.40
2022-12-25T14:36:51.463Z,71.00
2022-12-25T14:39:38.043Z,70.60
2022-12-25T14:42:23.073Z,68.50
2022-12-25T14:45:03.237Z,67.80
2022-12-25T14:47:33.483Z,67.90
2022-12-25T14:50:00.687Z,68.10
2022-12-25T14:52:43.667Z,68.10
2022-12-25T14:55:21.469Z,67.90
2022-12-25T14:58:05.626Z,67.90
2022-12-25T15:00:35.781Z,68.10
2022-12-25T15:03:17.812Z,68.30
2022-12-25T15:05:45.029Z,68.40
2022-12-25T15:08:11.989Z,68.50
2022-12-25T15:13:29.476Z,68.90
2022-12-25T15:16:22.629Z,68.90
2022-12-25T15:18:50.474Z,68.60
2022-12-25T15:21:30.228Z,69.10
2022-12-25T15:23:59.565Z,69.20
2022-12-25T15:26:30.732Z,69.30
2022-12-25T15:28:58.780Z,69.40
2022-12-25T15:31:30.179Z,69.50
2022-12-25T15:34:00.968Z,69.70
2022-12-25T15:36:29.085Z,69.80
2022-12-25T15:38:56.678Z,69.80
2022-12-25T15:41:55.804Z,69.90
2022-12-25T15:44:24.203Z,69.90
2022-12-25T15:46:51.619Z,70.10
2022-12-25T15:49:18.751Z,70.30
2022-12-25T15:51:46.622Z,70.40
2022-12-25T15:54:13.727Z,70.40
2022-12-25T15:56:51.570Z,70.40
2022-12-25T15:59:21.351Z,70.60
2022-12-25T16:01:55.459Z,70.70
2022-12-25T16:04:24.987Z,70.70
2022-12-25T16:06:53.161Z,70.70
2022-12-25T16:09:21.015Z,70.70
2022-12-25T16:11:50.370Z,70.80
2022-12-25T16:14:18.950Z,70.80
2022-12-25T16:16:46.158Z,70.80
2022-12-25T16:19:13.280Z,70.90
2022-12-25T16:21:44.497Z,71.00
2022-12-25T16:24:12.035Z,71.10
2022-12-25T16:26:39.631Z,71.20
2022-12-25T16:29:08.021Z,71.20
2022-12-25T16:31:36.967Z,71.30
2022-12-25T16:34:05.757Z,71.40
2022-12-25T16:36:33.879Z,71.40
2022-12-25T16:39:00.959Z,71.50
2022-12-25T16:41:28.081Z,71.60
2022-12-25T16:43:55.086Z,71.70
2022-12-25T16:46:23.501Z,71.80
2022-12-25T16:48:50.667Z,71.90
2022-12-25T16:51:21.063Z,72.00
2022-12-25T16:53:48.725Z,72.00
2022-12-25T16:56:20.652Z,72.00
2022-12-25T16:58:48.417Z,72.10
2022-12-25T17:01:19.498Z,72.10
2022-12-25T17:03:47.529Z,72.10
2022-12-25T17:06:24.349Z,72.10
2022-12-25T17:08:58.798Z,72.20
2022-12-25T17:11:30.313Z,72.20
2022-12-25T17:14:03.591Z,72.30
2022-12-25T17:16:36.237Z,72.40
2022-12-25T17:19:12.148Z,72.60
2022-12-25T17:21:39.407Z,72.60
2022-12-25T17:24:07.163Z,72.70
2022-12-25T17:26:34.155Z,72.80
2022-12-25T17:29:01.539Z,72.80
2022-12-25T17:31:29.471Z,72.70
2022-12-25T17:33:56.701Z,72.70
2022-12-25T17:36:24.317Z,72.70
2022-12-25T17:38:51.385Z,72.70
2022-12-25T17:41:19.893Z,72.70
2022-12-25T17:43:48.352Z,72.60
2022-12-25T17:46:20.153Z,72.70
2022-12-25T17:48:47.538Z,72.70
2022-12-25T17:51:17.512Z,72.70
2022-12-25T17:53:48.237Z,72.50
2022-12-25T17:56:16.456Z,72.60
2022-12-25T17:58:44.067Z,72.70
2022-12-25T18:01:15.632Z,72.60
2022-12-25T18:03:46.323Z,72.60
2022-12-25T18:06:17.403Z,72.70
2022-12-25T18:08:46.532Z,72.60
2022-12-25T18:11:18.288Z,72.60
2022-12-25T18:13:48.515Z,72.60
2022-12-25T18:16:17.498Z,72.50
2022-12-25T18:18:51.387Z,72.30
2022-12-25T18:21:21.098Z,72.40
2022-12-25T18:23:48.365Z,72.40
2022-12-25T18:26:15.603Z,72.40
2022-12-25T18:28:43.950Z,72.50
2022-12-25T18:31:16.938Z,72.50
2022-12-25T18:33:45.036Z,72.50
2022-12-25T18:36:20.353Z,72.50
2022-12-25T18:38:52.609Z,72.50
2022-12-25T18:41:21.784Z,72.60
2022-12-25T18:43:52.683Z,72.70
2022-12-25T18:46:24.251Z,72.60
2022-12-25T18:48:52.604Z,72.60
2022-12-25T18:51:19.927Z,72.70
2022-12-25T18:53:47.112Z,72.90
2022-12-25T18:56:17.552Z,73.00
2022-12-25T18:58:46.557Z,72.90
2022-12-25T19:01:20.939Z,72.90
2022-12-25T19:03:51.612Z,73.00
2022-12-25T19:06:21.792Z,73.00
2022-12-25T19:08:49.350Z,73.00
2022-12-25T19:11:18.118Z,73.00
2022-12-25T19:13:45.857Z,73.00
2022-12-25T19:16:13.513Z,73.00
2022-12-25T19:18:40.875Z,73.10
2022-12-25T19:21:09.476Z,73.00
2022-12-25T19:23:38.055Z,73.00
2022-12-25T19:26:07.433Z,73.10
2022-12-25T19:28:35.274Z,73.10
2022-12-25T19:31:03.944Z,73.20
2022-12-25T19:33:32.276Z,73.30
2022-12-25T19:36:08.804Z,73.30
2022-12-25T19:38:35.884Z,73.30
2022-12-25T19:41:08.478Z,73.30
2022-12-25T19:43:39.023Z,73.30
2022-12-25T19:46:08.544Z,73.30
2022-12-25T19:48:35.851Z,73.40
2022-12-25T19:51:03.019Z,73.40
2022-12-25T19:53:31.209Z,73.50
2022-12-25T19:56:02.471Z,73.50
2022-12-25T19:58:30.255Z,73.70
2022-12-25T20:01:05.220Z,73.70
2022-12-25T20:03:37.432Z,73.70
2022-12-25T20:06:09.132Z,73.70
2022-12-25T20:08:36.189Z,73.80
2022-12-25T20:11:03.847Z,73.80
2022-12-25T20:13:30.819Z,73.90
2022-12-25T20:16:01.747Z,73.90
2022-12-25T20:18:29.369Z,73.90
2022-12-25T20:21:05.408Z,74.00
2022-12-25T20:23:33.197Z,74.00
2022-12-25T20:26:01.960Z,73.90
2022-12-25T20:28:29.375Z,73.80
2022-12-25T20:30:57.234Z,73.80
2022-12-25T20:33:24.540Z,74.00
2022-12-25T20:35:51.999Z,73.80
2022-12-25T20:38:19.129Z,73.70
2022-12-25T20:41:24.410Z,73.70
2022-12-25T20:43:34.154Z,73.80
2022-12-25T20:46:01.519Z,73.90
2022-12-25T20:48:28.964Z,74.00
2022-12-25T20:51:12.454Z,73.90
2022-12-25T20:53:40.319Z,74.00
2022-12-25T20:56:11.284Z,73.90
2022-12-25T20:58:38.617Z,73.80
2022-12-25T21:01:14.344Z,73.80
2022-12-25T21:03:41.961Z,73.90
2022-12-25T21:06:10.128Z,73.90
2022-12-25T21:08:38.538Z,74.00
2022-12-25T21:11:07.513Z,74.00
2022-12-25T21:13:41.020Z,74.10
2022-12-25T21:16:18.814Z,74.30
2022-12-25T21:18:48.047Z,74.30
2022-12-25T21:21:16.278Z,74.40
2022-12-25T21:23:43.404Z,74.40
2022-12-25T21:26:21.651Z,74.40
2022-12-25T21:28:57.446Z,74.30
2022-12-25T21:31:25.649Z,74.30
2022-12-25T21:33:55.309Z,74.30
2022-12-25T21:36:32.797Z,74.30
2022-12-25T21:39:08.490Z,74.40
2022-12-25T21:41:38.473Z,74.60
2022-12-25T21:44:06.707Z,74.60
2022-12-25T21:46:34.143Z,74.60
2022-12-25T21:49:02.036Z,74.60
2022-12-25T21:51:52.944Z,74.60
2022-12-25T21:54:23.074Z,74.70
2022-12-25T21:56:50.813Z,74.70
2022-12-25T21:59:21.541Z,74.80
2022-12-25T22:01:50.415Z,74.90
2022-12-25T22:04:20.561Z,75.00
2022-12-25T22:07:06.773Z,75.00
2022-12-25T22:09:34.589Z,75.00
2022-12-25T22:12:21.391Z,75.00
2022-12-25T22:14:56.624Z,75.00
2022-12-25T22:17:53.816Z,75.10
2022-12-25T22:20:34.768Z,75.10
2022-12-25T22:23:02.608Z,75.00
2022-12-25T22:25:29.763Z,75.00
2022-12-25T22:27:57.631Z,75.00
2022-12-25T22:30:28.305Z,75.00
2022-12-25T22:32:56.345Z,75.00
2022-12-25T22:35:24.174Z,75.00
2022-12-25T22:37:51.488Z,75.00
2022-12-25T22:40:20.090Z,75.00
2022-12-25T22:42:47.876Z,75.20
2022-12-25T22:45:15.267Z,75.30
2022-12-25T22:47:42.417Z,75.70
2022-12-25T22:50:11.409Z,75.80
2022-12-25T22:52:39.042Z,76.00
2022-12-25T22:55:08.560Z,76.00
2022-12-25T22:57:36.503Z,76.10
2022-12-25T23:00:06.607Z,76.30
2022-12-25T23:02:35.313Z,76.60
2022-12-25T23:05:03.492Z,76.80
2022-12-25T23:07:30.656Z,76.90
2022-12-25T23:09:57.720Z,76.90
2022-12-25T23:12:43.570Z,77.20
2022-12-25T23:15:10.922Z,77.30
2022-12-25T23:17:56.910Z,77.30
2022-12-25T23:20:42.802Z,77.40
2022-12-25T23:23:34.662Z,77.60
2022-12-25T23:26:09.649Z,77.40
2022-12-25T23:29:00.859Z,77.50
2022-12-25T23:31:39.933Z,77.40
2022-12-25T23:34:08.717Z,77.50
2022-12-25T23:36:36.049Z,77.30
2022-12-25T23:39:09.554Z,77.40
2022-12-25T23:41:41.455Z,77.50
2022-12-25T23:44:11.138Z,77.50
2022-12-25T23:46:39.116Z,77.50
2022-12-25T23:49:07.200Z,77.40
2022-12-25T23:51:43.868Z,77.40
2022-12-25T23:54:14.544Z,77.40
2022-12-25T23:56:42.863Z,77.30
2022-12-25T23:59:10.901Z,77.20
